Bookmark and Share
Track history (hours):
 

Callsign 2BXQX4 (name unknown)

Last reported at 2013-Jul-07 17:32 UTC. Time now 2014-Apr-16 22:25 UTC.
Position N 27°10' W 028°09'.
Warning: this ship's position is months out of date.

NotesDate/timePositionNaut miles runAvg speedWind from/ knotsBaromVisibWave heightAir tempDewpointWater temp
2013-Jul-07 17:32N 27°10' W 028°09'  
2013-Jul-05 13:09N 31°01' W 017°34'50511.6
2013-Jul-03 17:29N 34°55' W 008°40'1111.2
2013-Jul-03 16:30N 34°60' W 008°28'3311.1
2013-Jul-03 13:32N 35°15' W 007°52'2611.1
2013-Jul-03 11:12N 35°27' W 007°25'811.4
2013-Jul-03 10:30N 35°31' W 007°16'  
2013-Jun-30 03:21N 32°06' W 009°54'1012.8
2013-Jun-30 02:33N 31°58' W 010°01'1312.7
2013-Jun-30 01:33N 31°48' W 010°10'6412.8
2013-Jun-29 20:32N 30°56' W 010°55'1313.0
2013-Jun-29 19:31N 30°45' W 011°04'1512.9
2013-Jun-29 18:20N 30°33' W 011°15'1012.8
2013-Jun-29 17:33N 30°25' W 011°21'5112.7
2013-Jun-29 13:33N 29°45' W 011°56'4313.0
2013-Jun-29 10:11N 29°09' W 012°25'2012.5
2013-Jun-29 08:33N 28°52' W 012°39'1312.2
2013-Jun-29 07:32N 28°42' W 012°47'1312.2
2013-Jun-29 06:28N 28°31' W 012°55'1112.5
2013-Jun-29 05:33N 28°22' W 013°03'1312.5
2013-Jun-29 04:33N 28°12' W 013°11'1312.6
2013-Jun-29 03:31N 28°01' W 013°19'4912.5
2013-Jun-28 23:33N 27°21' W 013°51'1212.1
2013-Jun-28 22:33N 27°10' W 013°59'1312.7
2013-Jun-28 21:30N 26°59' W 014°07'1212.4
2013-Jun-28 20:33N 26°50' W 014°15'1511.9
2013-Jun-28 19:16N 26°37' W 014°24'912.1
2013-Jun-28 18:33N 26°30' W 014°30'1212.1
2013-Jun-28 17:33N 26°20' W 014°37'1311.9
2013-Jun-28 16:29N 26°09' W 014°45'26812.8
2013-Jun-27 19:27N 22°12' W 017°03'  

Dump ship's entire track history

sailing weather and tide predictions

Ship Status Report: callsign 2BXQX4